Time;durP1;ratioP1;P1;durP2;ratioP2;P2;SDS_P1;SDS_P2;PMS_P1;PMS_P2;Temp;Humidity;BMP_temperature;BMP_pressure;BME280_temperature;BME280_humidity;BME280_pressure;Samples;Min_cycle;Max_cycle;Signal;HPM_P1;HPM_P2
2021/10/20 00:00:55;;;;;;;19.63;11.90;;;;;;;10.19;69.01;99226.91;2147636;83;21373;-81
2021/10/20 00:03:55;;;;;;;23.80;12.70;;;;;;;10.18;69.08;99226.45;2147686;83;21444;-82
2021/10/20 00:06:58;;;;;;;19.27;12.70;;;;;;;10.15;68.94;99219.88;2146996;82;20911;-81
2021/10/20 00:09:58;;;;;;;29.00;15.23;;;;;;;10.15;68.96;99217.69;2146317;83;21030;-81
2021/10/20 00:12:59;;;;;;;21.10;13.07;;;;;;;10.11;68.95;99218.48;2146507;83;21610;-81
2021/10/20 00:15:59;;;;;;;29.77;15.07;;;;;;;10.08;68.95;99205.38;2146663;82;20918;-80
2021/10/20 00:19:00;;;;;;;22.67;14.37;;;;;;;10.04;68.95;99200.52;2146051;83;20989;-80
2021/10/20 00:22:00;;;;;;;19.97;14.23;;;;;;;10.00;68.99;99198.70;2147570;83;20914;-81
2021/10/20 00:25:01;;;;;;;24.70;14.23;;;;;;;9.96;69.03;99197.31;2147352;83;20918;-80
2021/10/20 00:28:01;;;;;;;21.23;14.13;;;;;;;9.94;69.16;99189.45;2147290;82;20943;-81
2021/10/20 00:31:02;;;;;;;20.70;14.43;;;;;;;9.89;69.16;99186.76;2147426;82;21341;-81
2021/10/20 00:34:02;;;;;;;25.27;13.87;;;;;;;9.85;69.19;99179.73;2148202;83;21017;-81
2021/10/20 00:37:03;;;;;;;27.77;14.43;;;;;;;9.83;69.30;99181.84;2147359;83;20922;-81
2021/10/20 00:40:04;;;;;;;25.27;16.20;;;;;;;9.80;69.39;99173.97;2147624;83;20944;-80
2021/10/20 00:43:04;;;;;;;28.00;15.03;;;;;;;9.78;69.50;99169.14;2147482;82;20935;-80
2021/10/20 00:46:04;;;;;;;25.27;14.90;;;;;;;9.76;69.54;99163.02;2147251;82;20958;-81
2021/10/20 00:49:05;;;;;;;28.60;15.70;;;;;;;9.74;69.61;99156.47;2147613;82;21429;-81
2021/10/20 00:52:05;;;;;;;27.13;15.17;;;;;;;9.73;69.69;99147.32;2152656;83;20914;-79
2021/10/20 00:55:06;;;;;;;24.20;14.33;;;;;;;9.73;69.81;99146.02;2152521;83;20934;-78
2021/10/20 00:58:06;;;;;;;24.33;15.50;;;;;;;9.71;69.83;99143.80;2152489;83;20933;-81
2021/10/20 01:01:07;;;;;;;27.50;15.97;;;;;;;9.72;69.93;99144.26;2152473;83;20926;-81
2021/10/20 01:04:07;;;;;;;29.50;15.93;;;;;;;9.76;69.97;99142.17;2152449;83;21029;-79
2021/10/20 01:07:08;;;;;;;27.17;15.63;;;;;;;9.78;69.88;99136.56;2152711;83;21342;-79
2021/10/20 01:10:08;;;;;;;21.37;15.00;;;;;;;9.81;69.89;99144.44;2153006;83;20993;-78
2021/10/20 01:13:09;;;;;;;23.97;15.50;;;;;;;9.84;69.91;99145.80;2152677;83;20949;-78
2021/10/20 01:16:09;;;;;;;22.27;14.43;;;;;;;9.88;69.87;99141.09;2152559;83;20927;-79
2021/10/20 01:19:10;;;;;;;31.53;15.73;;;;;;;9.91;69.88;99134.64;2152336;83;20970;-80
2021/10/20 01:22:11;;;;;;;22.30;14.40;;;;;;;9.94;69.94;99141.22;2152066;83;20958;-80
2021/10/20 01:25:11;;;;;;;28.13;14.90;;;;;;;9.95;69.90;99131.24;2059500;87;20922;-80
2021/10/20 01:28:12;;;;;;;29.00;15.50;;;;;;;10.01;69.99;99133.96;2152386;82;20922;-78
2021/10/20 01:31:13;;;;;;;49.67;32.40;;;;;;;10.06;69.95;99119.70;2152175;83;20938;-79
2021/10/20 01:34:13;;;;;;;34.33;23.77;;;;;;;10.06;70.08;99125.80;2059557;86;21348;-79
2021/10/20 01:37:14;;;;;;;26.70;15.40;;;;;;;10.07;70.18;99128.86;2152344;82;20922;-80
2021/10/20 01:40:14;;;;;;;28.80;15.03;;;;;;;10.07;70.19;99121.03;2152627;83;20965;-81
2021/10/20 01:43:15;;;;;;;25.57;13.30;;;;;;;10.03;70.25;99119.22;2152229;83;20906;-79
2021/10/20 01:46:15;;;;;;;27.13;14.03;;;;;;;10.00;70.52;99115.25;2152039;83;20926;-79
2021/10/20 01:49:16;;;;;;;21.47;14.03;;;;;;;9.99;70.63;99110.89;2152983;82;21366;-80
2021/10/20 01:52:16;;;;;;;23.33;12.70;;;;;;;9.97;70.89;99103.46;2181796;82;21297;-79
2021/10/20 01:55:17;;;;;;;20.60;13.07;;;;;;;9.93;71.68;99092.52;2181774;82;20981;-80
2021/10/20 01:58:17;;;;;;;20.00;12.87;;;;;;;9.87;71.77;99089.38;2181797;82;20909;-80
2021/10/20 02:01:18;;;;;;;21.20;13.20;;;;;;;9.84;71.76;99088.02;2181695;82;20969;-80
2021/10/20 02:04:18;;;;;;;39.67;14.70;;;;;;;9.84;71.91;99079.31;2181500;82;21003;-79
2021/10/20 02:07:19;;;;;;;211.67;27.87;;;;;;;9.80;71.99;99072.29;2181997;82;20925;-80
2021/10/20 02:10:19;;;;;;;41.00;13.60;;;;;;;9.81;72.11;99068.83;2181346;82;21320;-79
2021/10/20 02:13:20;;;;;;;20.93;12.93;;;;;;;9.84;71.99;99059.77;2181231;82;20945;-80
2021/10/20 02:16:20;;;;;;;20.23;12.93;;;;;;;9.85;72.11;99049.78;2181229;82;20941;-78
2021/10/20 02:19:21;;;;;;;20.50;12.43;;;;;;;9.87;72.03;99062.00;2181200;82;20985;-78
2021/10/20 02:22:21;;;;;;;24.80;12.53;;;;;;;9.93;72.05;99066.45;2181772;82;20941;-80
2021/10/20 02:25:22;;;;;;;20.37;12.57;;;;;;;9.99;71.92;99059.16;2181824;82;20912;-79
2021/10/20 02:28:23;;;;;;;74.67;17.43;;;;;;;9.99;72.06;99067.86;2181755;82;20928;-81
2021/10/20 02:31:23;;;;;;;23.73;12.53;;;;;;;9.97;72.11;99069.56;2181931;82;21360;-77
2021/10/20 02:34:24;;;;;;;24.43;11.23;;;;;;;9.94;72.39;99052.55;2181664;82;21008;-79
2021/10/20 02:37:25;;;;;;;22.30;12.83;;;;;;;9.90;72.69;99055.97;2181919;82;20972;-81
2021/10/20 02:40:25;;;;;;;20.00;12.10;;;;;;;9.85;72.75;99057.61;2181958;82;20961;-81
2021/10/20 02:43:26;;;;;;;20.80;12.80;;;;;;;9.83;72.63;99057.58;2181777;82;20984;-81
2021/10/20 02:46:26;;;;;;;23.07;13.03;;;;;;;9.81;72.81;99057.10;2182050;82;21293;-81
2021/10/20 02:49:27;;;;;;;23.33;13.83;;;;;;;9.84;73.06;99054.55;2181654;82;21344;-80
2021/10/20 02:52:27;;;;;;;22.97;13.60;;;;;;;9.87;72.99;99050.70;2152380;83;20938;-81
2021/10/20 02:55:29;;;;;;;21.50;12.27;;;;;;;9.90;73.02;99048.14;2152428;83;21097;-80
2021/10/20 02:58:29;;;;;;;20.43;10.67;;;;;;;9.95;73.32;99049.52;2152352;83;20930;-80
2021/10/20 03:01:30;;;;;;;18.73;9.93;;;;;;;10.02;73.52;99049.66;2152572;83;20922;-81
2021/10/20 03:04:30;;;;;;;15.50;9.10;;;;;;;10.15;73.17;99032.05;2152177;83;21021;-80
2021/10/20 03:07:31;;;;;;;32.50;9.40;;;;;;;10.42;72.76;99029.50;2152309;83;20954;-81
2021/10/20 03:10:31;;;;;;;16.30;8.30;;;;;;;10.66;72.18;99022.45;2152478;83;21405;-80
2021/10/20 03:13:32;;;;;;;22.60;9.53;;;;;;;10.87;71.47;99021.88;2152512;83;20931;-81
2021/10/20 03:16:32;;;;;;;23.20;12.60;;;;;;;11.05;70.86;99022.11;2152802;83;20965;-80
2021/10/20 03:19:33;;;;;;;12.33;8.50;;;;;;;11.14;70.49;99017.00;2152197;83;20942;-78
2021/10/20 03:22:34;;;;;;;12.40;8.33;;;;;;;11.23;70.37;99013.20;2152745;83;20969;-79
2021/10/20 03:25:35;;;;;;;13.40;8.23;;;;;;;11.34;70.17;99009.43;2059449;87;20954;-80
2021/10/20 03:28:35;;;;;;;12.00;8.07;;;;;;;11.40;69.93;99012.99;2152001;83;20943;-82
2021/10/20 03:31:36;;;;;;;12.27;7.83;;;;;;;11.47;69.61;99008.28;2152221;83;20946;-78
2021/10/20 03:34:36;;;;;;;10.93;7.13;;;;;;;11.53;69.57;99007.47;2151738;83;21040;-79
2021/10/20 03:37:37;;;;;;;11.47;7.30;;;;;;;11.60;69.44;98998.83;2152131;83;21373;-78
2021/10/20 03:40:37;;;;;;;12.90;7.73;;;;;;;11.68;69.25;98998.90;2151780;83;21298;-78
2021/10/20 03:43:38;;;;;;;9.17;7.30;;;;;;;11.75;69.11;99001.59;2151203;83;20958;-79
2021/10/20 03:46:38;;;;;;;14.40;7.67;;;;;;;11.79;68.54;98995.98;2151781;83;20946;-79
2021/10/20 03:49:39;;;;;;;9.83;7.13;;;;;;;11.85;68.68;98995.17;2150661;82;21151;-79
2021/10/20 03:52:39;;;;;;;12.50;7.07;;;;;;;11.88;68.63;98988.66;2151364;83;20946;-79
2021/10/20 03:55:40;;;;;;;19.53;7.50;;;;;;;11.91;68.37;98979.53;2150843;83;20973;-79
2021/10/20 03:58:40;;;;;;;9.33;7.30;;;;;;;11.95;68.49;98977.38;2151617;83;21421;-80
2021/10/20 04:01:41;;;;;;;11.13;7.93;;;;;;;11.99;68.32;98981.34;2151255;83;20946;-79
2021/10/20 04:04:41;;;;;;;296.20;203.47;;;;;;;12.04;68.38;98975.72;2152092;83;21013;-79
2021/10/20 04:07:42;;;;;;;95.42;64.40;;;;;;;12.67;71.15;98962.65;2151913;83;20942;-79
2021/10/20 04:10:42;;;;;;;23.57;17.82;;;;;;;15.23;62.96;98962.84;2151987;83;20962;-80
2021/10/20 04:13:43;;;;;;;33.25;23.40;;;;;;;16.47;60.27;98957.63;2151535;83;21347;-77
2021/10/20 04:16:43;;;;;;;21.75;12.95;;;;;;;17.29;56.80;98958.89;2151218;83;21357;-79
2021/10/20 04:19:44;;;;;;;10.90;7.55;;;;;;;17.13;54.82;98959.54;2151005;83;20950;-79
2021/10/20 04:22:46;;;;;;;10.90;6.20;;;;;;;16.24;56.16;98958.25;2150110;83;21045;-80
2021/10/20 04:25:46;;;;;;;8.08;6.28;;;;;;;15.14;57.90;98962.89;2150598;83;20982;-80
2021/10/20 04:28:47;;;;;;;10.45;7.20;;;;;;;14.50;59.35;98966.14;2149819;83;20938;-80
2021/10/20 04:31:47;;;;;;;8.23;6.80;;;;;;;13.99;60.72;98960.03;2150215;83;20949;-81
2021/10/20 04:34:48;;;;;;;15.83;7.90;;;;;;;13.64;61.79;98957.35;2150080;83;21001;-79
2021/10/20 04:37:48;;;;;;;10.23;7.35;;;;;;;13.42;62.73;98952.95;2150918;83;20993;-80
2021/10/20 04:40:49;;;;;;;11.22;8.18;;;;;;;13.26;63.30;98952.03;2150772;83;20961;-81
2021/10/20 04:43:50;;;;;;;12.15;7.83;;;;;;;13.14;64.03;98945.41;2150605;83;20929;-81
2021/10/20 04:46:51;;;;;;;12.00;7.28;;;;;;;13.05;64.56;98944.94;2057938;87;21442;-81
2021/10/20 04:49:51;;;;;;;7.75;6.55;;;;;;;12.99;64.88;98938.34;2150931;82;20977;-80
2021/10/20 04:52:52;;;;;;;10.48;7.53;;;;;;;12.93;65.50;98938.31;2151366;82;20978;-80
2021/10/20 04:55:53;;;;;;;14.80;7.25;;;;;;;12.90;65.58;98931.75;2151241;83;21395;-80
2021/10/20 04:58:53;;;;;;;11.88;8.15;;;;;;;12.89;65.68;98933.93;2058497;87;21363;-80
2021/10/20 05:01:54;;;;;;;12.37;8.93;;;;;;;12.88;65.90;98937.42;2151384;82;20982;-80
2021/10/20 05:04:54;;;;;;;12.95;8.70;;;;;;;12.88;66.06;98942.66;2151103;83;21012;-79
2021/10/20 05:07:55;;;;;;;11.63;8.18;;;;;;;12.88;66.33;98936.98;2151095;83;20977;-80
2021/10/20 05:10:57;;;;;;;11.10;7.70;;;;;;;12.89;66.50;98919.09;2150732;83;20945;-79
2021/10/20 05:13:57;;;;;;;85.22;13.70;;;;;;;12.88;66.59;98916.46;2150815;83;21021;-81
2021/10/20 05:16:58;;;;;;;10.55;8.20;;;;;;;12.88;66.79;98917.34;2150704;83;20966;-81
2021/10/20 05:19:58;;;;;;;10.85;7.15;;;;;;;12.90;66.79;98909.48;2150945;83;20938;-80
2021/10/20 05:22:59;;;;;;;12.23;10.08;;;;;;;12.90;67.00;98918.66;2151002;83;20977;-81
2021/10/20 05:26:00;;;;;;;11.97;7.45;;;;;;;12.87;66.98;98910.78;2150605;83;21364;-79
2021/10/20 05:29:01;;;;;;;19.77;7.75;;;;;;;12.84;67.15;98904.22;2150620;83;21026;-79
2021/10/20 05:32:01;;;;;;;13.70;7.40;;;;;;;12.80;67.30;98911.63;2057964;87;21033;-80
2021/10/20 05:35:02;;;;;;;12.47;7.92;;;;;;;12.78;67.37;98914.67;2150916;83;21759;-81
2021/10/20 05:38:03;;;;;;;9.40;7.05;;;;;;;12.74;67.61;98908.12;2150548;83;20945;-81
2021/10/20 05:41:03;;;;;;;13.53;8.30;;;;;;;12.74;67.97;98907.24;2151349;83;20945;-80
2021/10/20 05:44:04;;;;;;;13.32;7.60;;;;;;;12.73;67.79;98903.75;2150865;83;21164;-81
2021/10/20 05:47:05;;;;;;;14.38;7.25;;;;;;;12.73;68.12;98908.11;2058196;87;20946;-82
2021/10/20 05:50:05;;;;;;;10.08;7.37;;;;;;;12.74;68.32;98905.50;2150676;82;20989;-80
2021/10/20 05:53:06;;;;;;;12.82;7.87;;;;;;;12.78;68.31;98914.67;2150534;82;20977;-79
2021/10/20 05:56:06;;;;;;;12.65;7.37;;;;;;;12.81;68.53;98923.42;2150996;83;21350;-78
2021/10/20 05:59:07;;;;;;;12.28;7.55;;;;;;;12.85;68.68;98915.14;2151169;83;20966;-79
2021/10/20 06:02:11;;;;;;;10.20;7.33;;;;;;;12.91;68.79;98916.04;2151721;83;21302;-81
2021/10/20 06:05:10;;;;;;;11.20;7.58;;;;;;;12.98;68.71;98915.19;2151612;82;21353;-81
2021/10/20 06:08:10;;;;;;;9.65;6.62;;;;;;;13.02;68.75;98913.48;2151602;83;20946;-81
2021/10/20 06:11:11;;;;;;;12.65;7.75;;;;;;;13.08;68.87;98909.58;2151955;83;21370;-80
2021/10/20 06:14:11;;;;;;;13.70;7.40;;;;;;;13.14;69.07;98912.21;2151652;83;20918;-81
2021/10/20 06:17:12;;;;;;;65.08;18.67;;;;;;;13.20;69.09;98908.33;2150727;83;20946;-79
2021/10/20 06:20:12;;;;;;;18.07;11.10;;;;;;;13.27;69.20;98894.36;2057814;87;20930;-80
2021/10/20 06:23:13;;;;;;;13.53;8.10;;;;;;;13.35;69.44;98890.01;2150691;82;20938;-81
2021/10/20 06:26:14;;;;;;;11.30;6.92;;;;;;;13.38;69.55;98893.95;2151079;83;21286;-80
2021/10/20 06:29:18;;;;;;;16.60;7.00;;;;;;;13.44;69.70;98891.77;2151061;83;21385;-80
2021/10/20 06:32:19;;;;;;;11.70;6.55;;;;;;;13.49;69.93;98887.84;2151643;83;20930;-78
2021/10/20 06:35:20;;;;;;;12.88;7.37;;;;;;;13.53;70.49;98890.46;2151351;83;21001;-79
2021/10/20 06:38:23;;;;;;;16.73;7.08;;;;;;;13.56;70.09;98902.27;2150310;83;20914;-81
2021/10/20 06:41:24;;;;;;;7.85;6.83;;;;;;;13.63;70.37;98899.21;2151147;83;21007;-80
2021/10/20 06:44:26;;;;;;;8.73;6.33;;;;;;;13.70;70.45;98906.20;2150945;83;20942;-80
2021/10/20 06:50:29;;;;;;;11.22;5.90;;;;;;;13.79;70.57;98909.27;2052988;86;20997;-80
2021/10/20 06:53:32;;;;;;;9.73;6.95;;;;;;;13.82;71.29;98904.89;2065584;86;21028;-80
2021/10/20 06:56:33;;;;;;;9.83;5.58;;;;;;;13.86;70.90;98925.01;2065782;86;20960;-81
2021/10/20 06:59:34;;;;;;;12.98;6.47;;;;;;;13.94;71.48;98922.42;2065291;86;21019;-79
2021/10/20 07:02:35;;;;;;;11.12;6.40;;;;;;;14.04;71.11;98922.84;2065720;86;20948;-81
2021/10/20 07:05:36;;;;;;;8.70;5.92;;;;;;;14.16;71.30;98922.84;2065697;86;21711;-81
2021/10/20 07:08:36;;;;;;;10.05;5.70;;;;;;;14.31;71.04;98920.63;2133706;82;20965;-80
2021/10/20 07:11:37;;;;;;;12.07;6.20;;;;;;;14.41;70.88;98934.17;2184416;82;20961;-79
2021/10/20 07:14:37;;;;;;;7.22;5.92;;;;;;;14.55;70.68;98915.78;2183750;82;20949;-81
2021/10/20 07:17:38;;;;;;;9.25;5.25;;;;;;;14.68;70.38;98916.17;2183626;82;21332;-80
2021/10/20 07:20:39;;;;;;;10.38;5.05;;;;;;;14.82;70.09;98913.53;2105971;85;21401;-79
2021/10/20 07:23:39;;;;;;;6.85;4.92;;;;;;;14.96;69.87;98914.34;2136645;83;21345;-80
2021/10/20 07:26:40;;;;;;;8.08;5.10;;;;;;;15.08;69.65;98911.66;2106815;85;21305;-80
2021/10/20 07:29:44;;;;;;;6.67;4.75;;;;;;;15.21;69.46;98906.76;2136660;83;21408;-80
2021/10/20 07:32:43;;;;;;;11.38;5.05;;;;;;;15.35;69.26;98904.05;2106008;85;21013;-80
2021/10/20 07:35:43;;;;;;;6.62;5.30;;;;;;;15.42;68.79;98896.98;2135974;83;21625;-80
2021/10/20 07:38:46;;;;;;;12.05;5.78;;;;;;;15.50;68.71;98903.07;2076454;85;20956;-80
2021/10/20 07:41:46;;;;;;;10.35;5.60;;;;;;;15.58;68.61;98894.71;2135660;83;20921;-81
2021/10/20 07:44:48;;;;;;;8.53;5.90;;;;;;;15.66;68.39;98898.19;2106255;85;20988;-82
2021/10/20 07:47:49;;;;;;;20.05;8.48;;;;;;;15.70;68.21;98889.39;2136494;83;21305;-80
2021/10/20 07:50:49;;;;;;;11.30;7.60;;;;;;;15.76;68.08;98889.34;2102175;85;20951;-80
2021/10/20 07:53:50;;;;;;;9.93;6.80;;;;;;;15.83;67.92;98888.84;2145089;83;20942;-80
2021/10/20 07:56:50;;;;;;;48.38;9.23;;;;;;;15.87;67.58;98888.80;2144872;82;20978;-80
2021/10/20 07:59:51;;;;;;;8.78;5.55;;;;;;;15.90;67.74;98897.98;2145340;83;20953;-81
2021/10/20 08:02:52;;;;;;;10.18;4.97;;;;;;;15.96;67.35;98901.45;2144962;83;21001;-80
2021/10/20 08:05:52;;;;;;;10.50;5.72;;;;;;;16.00;67.30;98899.23;2145287;83;20989;-79
2021/10/20 08:08:53;;;;;;;8.08;5.30;;;;;;;16.04;67.10;98893.05;2145766;82;21129;-80
2021/10/20 08:11:53;;;;;;;9.05;5.20;;;;;;;16.08;67.21;98893.45;2145413;82;21594;-80
2021/10/20 08:14:56;;;;;;;8.43;4.67;;;;;;;16.21;67.15;98901.66;2145020;82;20938;-80
2021/10/20 08:18:00;;;;;;;11.08;5.70;;;;;;;16.33;66.49;98894.07;2145450;83;20998;-81
2021/10/20 08:20:58;;;;;;;37.65;27.50;;;;;;;16.67;67.81;98884.97;2145137;83;20994;-81
2021/10/20 08:23:59;;;;;;;14.10;7.70;;;;;;;17.16;65.44;98872.45;2145883;82;20948;-83
2021/10/20 08:26:59;;;;;;;12.47;6.95;;;;;;;17.16;65.44;98872.45;2145440;82;21377;-81
2021/10/20 08:30:00;;;;;;;10.93;6.37;;;;;;;17.34;65.44;98877.50;2145493;83;21029;-80
2021/10/20 08:33:01;;;;;;;12.23;6.30;;;;;;;17.56;64.71;98870.12;2145712;82;20974;-82
2021/10/20 08:36:01;;;;;;;35.05;7.53;;;;;;;17.93;64.44;98874.38;2145339;83;21002;-82
2021/10/20 08:39:02;;;;;;;11.60;5.37;;;;;;;18.10;62.88;98867.48;2145662;83;20931;-83
2021/10/20 08:42:03;;;;;;;10.55;6.53;;;;;;;18.27;61.97;98861.92;2053632;87;21006;-81
2021/10/20 08:45:03;;;;;;;7.67;5.45;;;;;;;18.42;62.16;98868.23;2146677;83;20949;-83
2021/10/20 08:48:04;;;;;;;8.28;5.85;;;;;;;18.56;62.34;98866.64;2146822;83;20986;-84
2021/10/20 08:51:04;;;;;;;6.70;5.47;;;;;;;18.77;61.69;98861.82;2149688;82;21072;-82
2021/10/20 08:54:05;;;;;;;12.20;6.03;;;;;;;18.95;61.13;98855.27;2100483;85;21000;-83
2021/10/20 08:57:06;;;;;;;22.30;6.65;;;;;;;19.08;60.00;98849.29;2129860;84;21004;-82
2021/10/20 09:00:07;;;;;;;14.68;6.00;;;;;;;19.13;58.82;98828.02;2100123;85;20969;-79
2021/10/20 09:03:07;;;;;;;12.50;5.85;;;;;;;19.04;59.38;98831.26;2130287;84;21180;-82
2021/10/20 09:06:08;;;;;;;13.38;5.42;;;;;;;18.99;59.33;98841.52;2100153;85;21673;-81
2021/10/20 09:09:09;;;;;;;9.85;4.90;;;;;;;19.07;58.77;98836.52;2129424;84;21384;-82
2021/10/20 09:12:10;;;;;;;9.25;5.47;;;;;;;19.14;58.11;98831.95;2099902;85;21304;-82
2021/10/20 09:15:11;;;;;;;20.00;7.70;;;;;;;18.99;57.31;98842.39;2129772;84;20918;-81
2021/10/20 09:18:15;;;;;;;16.07;5.72;;;;;;;18.87;57.85;98837.38;2100384;85;21040;-82
2021/10/20 09:21:15;;;;;;;12.93;6.17;;;;;;;19.05;57.94;98828.16;2129948;84;20941;-83
2021/10/20 09:24:16;;;;;;;13.25;5.65;;;;;;;19.24;59.29;98831.28;2100825;85;20992;-82
2021/10/20 09:27:16;;;;;;;10.00;5.17;;;;;;;19.36;57.23;98821.73;2130659;84;20973;-83
2021/10/20 09:30:17;;;;;;;12.80;5.75;;;;;;;19.25;57.44;98814.05;2100717;85;21028;-81
2021/10/20 09:33:17;;;;;;;8.80;5.17;;;;;;;19.26;57.24;98817.12;2130106;84;20976;-84
2021/10/20 09:36:20;;;;;;;11.97;5.60;;;;;;;19.18;57.36;98807.62;2100102;85;21399;-83
2021/10/20 09:39:20;;;;;;;11.88;5.60;;;;;;;19.15;57.46;98812.98;2129362;84;21349;-82
2021/10/20 09:42:21;;;;;;;11.50;5.47;;;;;;;19.17;57.18;98804.55;2099915;85;20930;-81
2021/10/20 09:45:21;;;;;;;12.33;5.70;;;;;;;19.19;57.51;98795.67;2130930;84;20965;-81
2021/10/20 09:48:22;;;;;;;8.68;5.37;;;;;;;19.22;57.79;98786.34;2101067;85;20953;-81
2021/10/20 09:51:22;;;;;;;15.43;6.00;;;;;;;19.37;56.90;98785.09;2130378;84;20988;-82
2021/10/20 09:54:23;;;;;;;9.50;5.05;;;;;;;19.39;57.23;98793.88;2122733;84;20993;-81
2021/10/20 09:57:25;;;;;;;12.58;5.58;;;;;;;19.34;55.88;98793.11;2104357;84;20894;-83
2021/10/20 10:00:26;;;;;;;10.10;5.28;;;;;;;19.32;56.39;98787.86;2122472;84;20942;-81
2021/10/20 10:03:26;;;;;;;8.65;5.20;;;;;;;19.36;56.57;98792.62;2122565;84;20978;-82
2021/10/20 10:06:27;;;;;;;43.52;11.30;;;;;;;19.41;55.59;98778.82;2121408;84;21070;-80
2021/10/20 10:09:27;;;;;;;15.83;5.28;;;;;;;19.26;55.71;98773.91;2122239;84;20995;-82
2021/10/20 10:12:28;;;;;;;12.05;6.67;;;;;;;19.26;56.31;98761.55;2121992;84;20949;-82
2021/10/20 10:15:29;;;;;;;12.45;5.70;;;;;;;19.35;55.32;98769.26;2122330;84;20922;-84
2021/10/20 10:18:30;;;;;;;14.70;5.47;;;;;;;19.48;55.58;98771.14;2122208;84;20927;-81
2021/10/20 10:21:31;;;;;;;12.15;5.17;;;;;;;19.65;55.36;98759.70;2122102;84;21329;-83
2021/10/20 10:24:31;;;;;;;6.15;4.28;;;;;;;19.72;54.25;98752.01;2121843;84;20965;-82
2021/10/20 10:27:32;;;;;;;9.08;5.20;;;;;;;19.71;54.16;98744.11;2121259;84;21110;-82
2021/10/20 10:30:33;;;;;;;27.13;6.17;;;;;;;19.57;53.79;98740.95;2121755;84;20985;-80
2021/10/20 10:33:33;;;;;;;12.37;5.47;;;;;;;19.64;54.65;98739.42;2121805;84;21664;-79
2021/10/20 10:36:34;;;;;;;11.18;4.80;;;;;;;19.74;55.22;98736.08;2120750;84;21044;-84
2021/10/20 10:39:35;;;;;;;16.73;5.50;;;;;;;19.92;54.85;98730.73;2121329;84;20957;-81
2021/10/20 10:42:35;;;;;;;20.00;5.08;;;;;;;20.09;53.92;98729.84;2121033;84;20986;-78
2021/10/20 10:45:37;;;;;;;26.12;13.22;;;;;;;20.16;52.96;98725.23;2121871;84;20946;-82
2021/10/20 10:48:40;;;;;;;11.55;6.25;;;;;;;20.13;52.67;98723.55;2121876;84;20958;-83
2021/10/20 10:51:40;;;;;;;8.45;5.30;;;;;;;20.12;52.68;98715.18;2121702;84;20986;-79
2021/10/20 10:54:41;;;;;;;9.40;4.75;;;;;;;20.13;51.88;98713.40;2121284;84;20981;-84
2021/10/20 10:57:41;;;;;;;9.45;5.83;;;;;;;20.25;52.66;98709.94;2121333;84;20946;-81
2021/10/20 11:00:42;;;;;;;17.25;5.62;;;;;;;20.45;52.68;98705.86;2121775;84;20946;-82
2021/10/20 11:03:42;;;;;;;11.48;5.92;;;;;;;20.47;52.24;98702.70;2121189;84;21394;-82
2021/10/20 11:06:43;;;;;;;10.40;6.17;;;;;;;20.49;52.13;98692.92;2120991;84;21009;-83
2021/10/20 11:09:43;;;;;;;16.87;6.72;;;;;;;20.45;51.88;98697.45;2120601;84;21009;-81
2021/10/20 11:12:44;;;;;;;10.60;5.53;;;;;;;20.43;51.82;98694.44;2121716;84;20938;-82
2021/10/20 11:15:44;;;;;;;20.45;6.45;;;;;;;20.45;51.29;98686.84;2121337;84;21366;-81
2021/10/20 11:18:45;;;;;;;11.10;5.37;;;;;;;20.36;50.65;98685.77;2121413;84;21002;-82
2021/10/20 11:21:45;;;;;;;12.75;6.53;;;;;;;20.33;50.95;98679.23;2121450;84;20914;-81
2021/10/20 11:24:46;;;;;;;20.90;7.00;;;;;;;20.52;51.38;98675.59;2122181;84;20968;-76
2021/10/20 11:27:46;;;;;;;22.10;5.67;;;;;;;20.76;51.19;98674.83;2122066;84;20958;-81
2021/10/20 11:30:47;;;;;;;10.45;5.20;;;;;;;20.76;49.32;98673.95;2121822;84;21012;-80
2021/10/20 11:33:47;;;;;;;8.95;5.20;;;;;;;20.68;50.09;98680.83;2121939;84;21024;-81
2021/10/20 11:36:48;;;;;;;6.83;5.78;;;;;;;20.64;50.07;98676.54;2121685;84;20998;-81
2021/10/20 11:39:48;;;;;;;7.85;5.03;;;;;;;20.58;49.51;98662.14;2121926;84;21362;-81
2021/10/20 11:42:49;;;;;;;5.83;4.70;;;;;;;20.59;49.56;98655.92;2120679;84;21373;-79
2021/10/20 11:45:50;;;;;;;16.90;6.00;;;;;;;20.57;48.78;98650.67;2121193;84;20993;-82
2021/10/20 11:48:50;;;;;;;12.50;6.22;;;;;;;20.58;49.80;98631.65;2121140;84;21033;-80
2021/10/20 11:51:50;;;;;;;10.78;5.53;;;;;;;20.72;49.67;98633.86;2120966;84;21025;-80
2021/10/20 11:54:51;;;;;;;11.55;4.55;;;;;;;20.74;48.39;98632.89;2120246;84;20949;-80
2021/10/20 11:57:51;;;;;;;43.90;6.75;;;;;;;20.69;48.58;98637.48;2120772;84;20958;-80
2021/10/20 12:00:52;;;;;;;7.80;4.75;;;;;;;20.77;48.68;98628.81;2120702;84;20949;-81
2021/10/20 12:03:52;;;;;;;11.85;6.62;;;;;;;20.83;48.91;98618.50;2120395;84;20946;-83
2021/10/20 12:06:53;;;;;;;7.47;5.00;;;;;;;20.93;49.24;98616.81;2120608;84;20998;-80
2021/10/20 12:09:54;;;;;;;11.88;4.90;;;;;;;20.95;48.87;98612.78;2119867;84;21005;-81
2021/10/20 12:12:54;;;;;;;8.05;5.40;;;;;;;20.94;48.65;98614.56;2120641;84;20964;-80
2021/10/20 12:15:55;;;;;;;11.08;5.15;;;;;;;20.97;48.18;98614.46;2119492;84;20954;-83
2021/10/20 12:18:56;;;;;;;12.43;4.50;;;;;;;20.98;47.43;98602.93;2119625;84;20986;-80
2021/10/20 12:21:59;;;;;;;9.63;4.72;;;;;;;20.96;47.75;98604.77;2119988;84;20974;-80
2021/10/20 12:24:59;;;;;;;8.98;4.97;;;;;;;20.89;47.41;98590.44;2174291;82;21029;-81
2021/10/20 12:28:00;;;;;;;10.78;4.95;;;;;;;20.82;47.93;98587.58;2175114;82;20945;-81
2021/10/20 12:31:00;;;;;;;8.88;6.12;;;;;;;20.77;47.66;98574.44;2175354;82;20976;-82
2021/10/20 12:34:00;;;;;;;23.07;6.83;;;;;;;20.74;48.50;98573.67;2175613;82;20964;-80
2021/10/20 12:37:01;;;;;;;8.10;4.50;;;;;;;20.79;48.89;98572.59;2174460;82;21024;-82
2021/10/20 12:40:01;;;;;;;32.93;5.58;;;;;;;20.83;47.91;98563.66;2174882;82;20933;-83
2021/10/20 12:43:05;;;;;;;6.85;4.67;;;;;;;20.83;48.23;98558.34;2174642;82;20965;-82
2021/10/20 12:46:05;;;;;;;12.60;5.60;;;;;;;20.87;48.09;98550.69;2174880;82;20997;-82
2021/10/20 12:49:08;;;;;;;32.75;6.17;;;;;;;20.92;47.77;98547.42;2175323;82;20949;-80
2021/10/20 12:52:08;;;;;;;20.90;5.80;;;;;;;20.93;48.23;98541.20;2172128;82;20949;-82
2021/10/20 12:55:08;;;;;;;13.95;5.00;;;;;;;20.92;48.12;98534.16;2150454;83;20973;-81
2021/10/20 12:58:09;;;;;;;9.43;4.92;;;;;;;20.96;48.83;98523.84;2151273;83;20942;-79
2021/10/20 13:01:09;;;;;;;14.65;5.03;;;;;;;20.92;48.46;98522.67;2151342;83;21345;-81
2021/10/20 13:04:10;;;;;;;8.50;4.83;;;;;;;20.92;48.83;98520.02;2150393;83;20919;-79
2021/10/20 13:07:10;;;;;;;5.55;4.70;;;;;;;20.93;48.89;98506.70;2149767;83;20981;-81
2021/10/20 13:10:12;;;;;;;4.87;4.20;;;;;;;20.96;49.04;98495.98;2150977;83;20946;-78
2021/10/20 13:13:12;;;;;;;6.40;4.45;;;;;;;20.95;48.69;98490.27;2058325;87;21007;-80
2021/10/20 13:16:13;;;;;;;7.70;4.58;;;;;;;20.92;48.62;98478.44;2150867;82;20950;-79
2021/10/20 13:19:14;;;;;;;8.55;4.37;;;;;;;20.97;49.00;98478.28;2151254;83;21349;-81
2021/10/20 13:22:15;;;;;;;9.23;4.45;;;;;;;21.06;48.90;98485.05;2058987;87;21022;-82
2021/10/20 13:25:15;;;;;;;9.90;4.25;;;;;;;21.09;48.25;98475.64;2152555;82;20985;-82
2021/10/20 13:28:16;;;;;;;8.33;4.05;;;;;;;21.08;48.44;98473.91;2152371;83;20976;-81
2021/10/20 13:31:18;;;;;;;8.38;4.47;;;;;;;21.02;48.27;98463.06;2152580;83;20942;-82
2021/10/20 13:34:19;;;;;;;12.80;4.65;;;;;;;20.98;48.59;98466.28;2059226;86;20962;-80
2021/10/20 13:37:20;;;;;;;7.45;4.45;;;;;;;21.01;48.87;98456.02;2151185;83;21073;-80
2021/10/20 13:40:20;;;;;;;7.42;5.03;;;;;;;20.99;49.01;98452.55;2058874;87;20992;-81
2021/10/20 13:43:21;;;;;;;7.22;4.55;;;;;;;20.99;49.12;98453.88;2151683;82;20981;-82
2021/10/20 13:46:22;;;;;;;7.15;4.87;;;;;;;20.89;49.40;98454.67;2059508;87;20993;-80
2021/10/20 13:49:22;;;;;;;8.93;5.78;;;;;;;20.76;49.74;98458.66;2152250;82;21148;-80
2021/10/20 13:52:23;;;;;;;19.48;12.28;;;;;;;20.69;49.94;98455.81;2152788;82;20950;-80
2021/10/20 13:55:29;;;;;;;17.40;10.50;;;;;;;20.69;50.06;98451.83;2152760;83;20990;-81
2021/10/20 13:58:29;;;;;;;22.35;9.38;;;;;;;20.59;50.28;98449.95;2152539;82;20985;-79
2021/10/20 14:01:30;;;;;;;21.62;10.63;;;;;;;20.48;50.57;98457.88;2152305;83;20941;-80
2021/10/20 14:04:31;;;;;;;13.88;6.58;;;;;;;20.32;50.71;98445.56;2059143;86;21002;-81